createdAt,value
2023-12-23T00:00:51.408Z,1.77
2023-12-23T00:03:43.296Z,1.78
2023-12-23T00:06:15.702Z,1.76
2023-12-23T00:08:47.629Z,1.75
2023-12-23T00:11:19.417Z,1.73
2023-12-23T00:13:51.217Z,1.71
2023-12-23T00:16:25.308Z,1.69
2023-12-23T00:18:57.260Z,1.70
2023-12-23T00:21:29.090Z,1.69
2023-12-23T00:24:00.866Z,1.67
2023-12-23T00:26:32.748Z,1.68
2023-12-23T00:29:04.773Z,1.69
2023-12-23T00:31:36.633Z,1.69
2023-12-23T00:34:08.518Z,1.66
2023-12-23T00:36:40.278Z,1.64
2023-12-23T00:39:12.125Z,1.64
2023-12-23T00:41:44.363Z,1.71
2023-12-23T00:44:16.352Z,1.65
2023-12-23T00:46:48.268Z,1.60
2023-12-23T00:49:20.286Z,1.56
2023-12-23T00:51:52.126Z,1.52
2023-12-23T00:54:24.643Z,1.47
2023-12-23T00:56:56.689Z,1.44
2023-12-23T00:59:28.480Z,1.41
2023-12-23T01:02:00.360Z,1.38
2023-12-23T01:04:32.278Z,1.36
2023-12-23T01:07:04.049Z,1.34
2023-12-23T01:09:35.838Z,1.32
2023-12-23T01:12:09.151Z,1.33
2023-12-23T01:14:41.073Z,1.37
2023-12-23T01:17:13.031Z,1.40
2023-12-23T01:19:44.991Z,1.43
2023-12-23T01:22:16.890Z,1.48
2023-12-23T01:24:48.639Z,1.60
2023-12-23T01:27:22.957Z,1.66
2023-12-23T01:29:54.835Z,1.65
2023-12-23T01:32:26.851Z,1.68
2023-12-23T01:34:58.781Z,1.70
2023-12-23T01:37:30.854Z,1.73
2023-12-23T01:40:02.658Z,1.74
2023-12-23T01:42:34.429Z,1.74
2023-12-23T01:45:07.095Z,1.73
2023-12-23T01:47:42.449Z,1.72
2023-12-23T01:50:15.215Z,1.71
2023-12-23T01:52:47.595Z,1.69
2023-12-23T01:55:19.766Z,1.69
2023-12-23T01:57:51.851Z,1.70
2023-12-23T02:00:24.280Z,1.71
2023-12-23T02:02:58.553Z,1.72
2023-12-23T02:05:30.753Z,1.72
2023-12-23T02:08:02.914Z,1.72
2023-12-23T02:10:35.038Z,1.73
2023-12-23T02:13:16.378Z,1.75
2023-12-23T02:15:51.140Z,1.79
2023-12-23T02:18:26.802Z,1.87
2023-12-23T02:21:00.383Z,1.89
2023-12-23T02:23:32.243Z,1.87
2023-12-23T02:26:06.168Z,1.88
2023-12-23T02:28:38.263Z,1.89
2023-12-23T02:31:10.879Z,1.91
2023-12-23T02:33:42.752Z,1.90
2023-12-23T02:36:14.637Z,1.87
2023-12-23T02:38:46.429Z,1.84
2023-12-23T02:41:18.574Z,1.82
2023-12-23T02:43:50.345Z,1.80
2023-12-23T02:46:23.246Z,1.79
2023-12-23T02:48:55.303Z,1.82
2023-12-23T02:51:27.087Z,1.83
2023-12-23T02:53:58.925Z,1.85
2023-12-23T02:56:32.145Z,1.91
2023-12-23T02:59:04.037Z,1.89
2023-12-23T03:01:35.814Z,1.80
2023-12-23T03:04:07.658Z,1.73
2023-12-23T03:06:39.414Z,1.67
2023-12-23T03:09:11.221Z,1.56
2023-12-23T03:11:43.071Z,1.48
2023-12-23T03:14:15.165Z,1.42
2023-12-23T03:16:47.239Z,1.42
2023-12-23T03:19:19.009Z,1.43
2023-12-23T03:21:50.882Z,1.37
2023-12-23T03:24:22.877Z,1.35
2023-12-23T03:26:54.806Z,1.32
2023-12-23T03:29:26.641Z,1.32
2023-12-23T03:31:58.481Z,1.30
2023-12-23T03:34:30.418Z,1.32
2023-12-23T03:37:02.208Z,1.38
2023-12-23T03:39:33.961Z,1.34
2023-12-23T03:42:06.239Z,1.30
2023-12-23T03:44:38.182Z,1.31
2023-12-23T03:47:10.521Z,1.31
2023-12-23T03:49:42.751Z,1.31
2023-12-23T03:52:14.644Z,1.31
2023-12-23T03:54:46.557Z,1.39
2023-12-23T03:57:18.414Z,1.44
2023-12-23T03:59:50.358Z,1.40
2023-12-23T04:02:22.121Z,1.40
2023-12-23T04:04:53.974Z,1.42
2023-12-23T04:07:26.051Z,1.41
2023-12-23T04:09:57.813Z,1.40
2023-12-23T04:12:29.766Z,1.38
2023-12-23T04:15:02.001Z,1.39
2023-12-23T04:17:33.953Z,1.44
2023-12-23T04:20:06.493Z,1.47
2023-12-23T04:22:38.608Z,1.43
2023-12-23T04:25:11.446Z,1.41
2023-12-23T04:27:43.261Z,1.40
2023-12-23T04:30:15.989Z,1.40
2023-12-23T04:32:48.610Z,1.38
2023-12-23T04:35:20.886Z,1.35
2023-12-23T04:37:52.753Z,1.34
2023-12-23T04:40:24.808Z,1.37
2023-12-23T04:42:56.584Z,1.35
2023-12-23T04:45:28.363Z,1.31
2023-12-23T04:48:00.372Z,1.29
2023-12-23T04:50:32.179Z,1.30
2023-12-23T04:53:04.058Z,1.27
2023-12-23T04:55:35.887Z,1.24
2023-12-23T04:58:11.559Z,1.21
2023-12-23T05:00:43.373Z,1.16
2023-12-23T05:03:15.156Z,1.18
2023-12-23T05:05:47.225Z,1.11
2023-12-23T05:08:19.077Z,1.10
2023-12-23T05:10:50.963Z,1.10
2023-12-23T05:13:24.432Z,1.13
2023-12-23T05:15:54.713Z,1.12
2023-12-23T05:18:26.609Z,1.09
2023-12-23T05:20:58.649Z,1.11
2023-12-23T05:23:30.445Z,1.13
2023-12-23T05:26:02.303Z,1.17
2023-12-23T05:28:34.228Z,1.28
2023-12-23T05:31:06.267Z,1.26
2023-12-23T05:33:38.223Z,1.27
2023-12-23T05:36:11.522Z,1.29
2023-12-23T05:38:43.290Z,1.29
2023-12-23T05:41:15.185Z,1.26
2023-12-23T05:43:47.454Z,1.22
2023-12-23T05:46:19.358Z,1.18
2023-12-23T05:48:51.158Z,1.17
2023-12-23T05:51:23.008Z,1.15
2023-12-23T05:53:55.009Z,1.10
2023-12-23T05:56:26.854Z,1.04
2023-12-23T05:58:58.761Z,0.99
2023-12-23T06:01:30.583Z,0.97
2023-12-23T06:04:02.559Z,1.02
2023-12-23T06:06:34.423Z,0.97
2023-12-23T06:09:07.776Z,0.88
2023-12-23T06:11:42.309Z,0.81
2023-12-23T06:14:14.510Z,0.75
2023-12-23T06:16:46.429Z,0.70
2023-12-23T06:19:18.245Z,0.66
2023-12-23T06:21:50.060Z,0.63
2023-12-23T06:24:21.828Z,0.56
2023-12-23T06:26:53.668Z,0.53
2023-12-23T06:29:25.501Z,0.47
2023-12-23T06:31:58.101Z,0.41
2023-12-23T06:34:29.932Z,0.36
2023-12-23T06:37:01.706Z,0.31
2023-12-23T06:39:33.792Z,0.32
2023-12-23T06:42:05.951Z,0.38
2023-12-23T06:44:37.761Z,0.37
2023-12-23T06:47:09.906Z,0.35
2023-12-23T06:49:41.826Z,0.35
2023-12-23T06:52:13.806Z,0.36
2023-12-23T06:54:45.632Z,0.42
2023-12-23T06:57:17.507Z,0.47
2023-12-23T06:59:49.745Z,0.49
2023-12-23T07:02:21.572Z,0.51
2023-12-23T07:04:53.694Z,0.52
2023-12-23T07:07:25.870Z,0.52
2023-12-23T07:10:04.732Z,0.52
2023-12-23T07:12:39.505Z,0.56
2023-12-23T07:15:13.153Z,0.51
2023-12-23T07:17:45.166Z,0.46
2023-12-23T07:20:17.392Z,0.42
2023-12-23T07:22:49.534Z,0.41
2023-12-23T07:25:21.804Z,0.44
2023-12-23T07:27:53.568Z,0.52
2023-12-23T07:30:25.444Z,0.60
2023-12-23T07:32:57.664Z,0.67
2023-12-23T07:35:29.759Z,0.78
2023-12-23T07:38:01.588Z,0.76
2023-12-23T07:40:36.077Z,0.77
2023-12-23T07:43:08.531Z,0.82
2023-12-23T07:45:40.509Z,0.89
2023-12-23T07:48:12.778Z,0.91
2023-12-23T07:50:44.757Z,0.91
2023-12-23T07:53:16.608Z,0.91
2023-12-23T07:55:49.166Z,0.94
2023-12-23T07:58:21.083Z,0.93
2023-12-23T08:00:52.923Z,1.01
2023-12-23T08:03:24.766Z,1.06
2023-12-23T08:05:56.676Z,1.09
2023-12-23T08:08:28.657Z,1.14
2023-12-23T08:11:00.885Z,1.37
2023-12-23T08:13:33.098Z,1.51
2023-12-23T08:16:05.165Z,1.57
2023-12-23T08:18:37.096Z,1.56
2023-12-23T08:21:09.562Z,1.60
2023-12-23T08:23:41.370Z,1.60
2023-12-23T08:26:13.190Z,1.60
2023-12-23T08:28:47.012Z,2.12
2023-12-23T08:31:19.087Z,2.84
2023-12-23T08:33:50.979Z,3.91
2023-12-23T08:36:23.887Z,3.75
2023-12-23T08:38:55.881Z,3.44
2023-12-23T08:41:28.037Z,3.55
2023-12-23T08:43:59.866Z,4.03
2023-12-23T08:46:32.759Z,4.75
2023-12-23T08:49:05.828Z,5.06
2023-12-23T08:51:39.440Z,4.63
2023-12-23T08:54:11.179Z,4.02
2023-12-23T08:56:42.997Z,3.57
2023-12-23T08:59:14.827Z,3.23
2023-12-23T09:01:46.744Z,3.01
2023-12-23T09:04:19.262Z,2.87
2023-12-23T09:06:51.060Z,2.73
2023-12-23T09:09:22.937Z,2.67
2023-12-23T09:11:54.744Z,2.67
2023-12-23T09:14:26.717Z,2.69
2023-12-23T09:16:58.683Z,2.61
2023-12-23T09:19:30.527Z,2.50
2023-12-23T09:22:02.376Z,2.45
2023-12-23T09:24:34.255Z,2.42
2023-12-23T09:27:07.058Z,2.39
2023-12-23T09:29:38.904Z,2.36
2023-12-23T09:32:10.789Z,2.37
2023-12-23T09:34:42.581Z,2.40
2023-12-23T09:37:14.407Z,2.36
2023-12-23T09:39:46.184Z,2.30
2023-12-23T09:42:18.820Z,2.28
2023-12-23T09:44:50.043Z,2.27
2023-12-23T09:47:21.945Z,2.30
2023-12-23T09:49:53.953Z,2.33
2023-12-23T09:52:26.049Z,2.34
2023-12-23T09:55:03.402Z,2.28
2023-12-23T09:57:37.441Z,2.27
2023-12-23T10:00:12.088Z,2.21
2023-12-23T10:02:43.892Z,2.15
2023-12-23T10:05:16.470Z,2.13
2023-12-23T10:07:48.363Z,2.11
2023-12-23T10:10:20.685Z,2.11
2023-12-23T10:12:53.323Z,2.09
2023-12-23T10:15:25.426Z,2.04
2023-12-23T10:17:58.307Z,2.04
2023-12-23T10:20:30.295Z,2.02
2023-12-23T10:23:02.138Z,2.00
2023-12-23T10:25:34.048Z,1.99
2023-12-23T10:28:08.602Z,1.97
2023-12-23T10:30:48.324Z,1.97
2023-12-23T10:33:23.787Z,1.94
2023-12-23T10:35:59.831Z,1.93
2023-12-23T10:38:32.911Z,1.89
2023-12-23T10:41:13.583Z,1.90
2023-12-23T10:43:46.191Z,1.92
2023-12-23T10:46:19.094Z,1.88
2023-12-23T10:48:52.203Z,1.88
2023-12-23T10:51:25.260Z,1.90
2023-12-23T10:53:59.263Z,1.93
2023-12-23T10:56:31.899Z,1.94
2023-12-23T10:59:04.336Z,1.95
2023-12-23T11:01:38.187Z,1.93
2023-12-23T11:04:10.254Z,1.92
2023-12-23T11:06:46.001Z,1.92
2023-12-23T11:09:19.563Z,1.95
2023-12-23T11:11:50.180Z,2.00
2023-12-23T11:14:22.105Z,1.98
2023-12-23T11:16:57.425Z,1.99
2023-12-23T11:19:29.774Z,2.00
2023-12-23T11:22:24.608Z,2.01
2023-12-23T11:24:56.956Z,2.02
2023-12-23T11:27:36.356Z,2.01
2023-12-23T11:30:10.223Z,1.97
2023-12-23T11:32:45.197Z,1.96
2023-12-23T11:35:17.202Z,1.98
2023-12-23T11:37:57.087Z,1.97
2023-12-23T11:40:31.322Z,1.99
2023-12-23T11:43:04.008Z,2.04
2023-12-23T11:45:36.140Z,2.08
2023-12-23T11:48:09.621Z,2.12
2023-12-23T11:50:39.928Z,2.11
2023-12-23T11:53:14.041Z,2.09
2023-12-23T11:55:46.779Z,2.14
2023-12-23T11:58:18.905Z,2.18
2023-12-23T12:00:55.382Z,2.21
2023-12-23T12:03:28.492Z,2.22
2023-12-23T12:06:01.606Z,2.21
2023-12-23T12:08:33.566Z,2.25
2023-12-23T12:11:05.627Z,2.25
2023-12-23T12:13:38.788Z,2.23
2023-12-23T12:16:10.780Z,2.24
2023-12-23T12:18:44.505Z,2.22
2023-12-23T12:21:16.534Z,2.23
2023-12-23T12:23:48.407Z,2.21
2023-12-23T12:26:21.224Z,2.17
2023-12-23T12:28:54.078Z,2.23
2023-12-23T12:31:26.013Z,2.28
2023-12-23T12:33:58.152Z,2.30
2023-12-23T12:36:30.306Z,2.22
2023-12-23T12:39:02.090Z,2.14
2023-12-23T12:41:38.408Z,2.07
2023-12-23T12:44:10.827Z,2.01
2023-12-23T12:46:42.579Z,1.90
2023-12-23T12:49:16.453Z,1.85
2023-12-23T12:51:48.379Z,1.79
2023-12-23T12:54:21.689Z,1.77
2023-12-23T12:56:54.029Z,1.72
2023-12-23T12:59:25.896Z,1.70
2023-12-23T13:01:57.752Z,1.66
2023-12-23T13:04:29.524Z,1.59
2023-12-23T13:07:01.270Z,1.56
2023-12-23T13:09:32.980Z,1.51
2023-12-23T13:12:05.595Z,1.50
2023-12-23T13:14:37.855Z,1.47
2023-12-23T13:17:09.771Z,1.47
2023-12-23T13:19:41.579Z,1.48
2023-12-23T13:22:13.385Z,1.44
2023-12-23T13:24:45.105Z,1.43
2023-12-23T13:27:18.644Z,1.40
2023-12-23T13:29:49.205Z,1.34
2023-12-23T13:32:20.952Z,1.36
2023-12-23T13:34:52.957Z,1.35
2023-12-23T13:37:24.704Z,1.29
2023-12-23T13:39:56.450Z,1.24
2023-12-23T13:42:28.440Z,1.22
2023-12-23T13:45:01.562Z,1.17
2023-12-23T13:47:34.673Z,1.15
2023-12-23T13:50:08.676Z,1.15
2023-12-23T13:52:41.393Z,1.14
2023-12-23T13:55:13.478Z,1.12
2023-12-23T13:57:45.242Z,1.08
2023-12-23T14:00:18.570Z,1.08
2023-12-23T14:02:50.590Z,1.13
2023-12-23T14:05:22.963Z,1.12
2023-12-23T14:07:54.946Z,1.05
2023-12-23T14:10:26.734Z,1.01
2023-12-23T14:12:58.831Z,0.98
2023-12-23T14:15:30.592Z,1.00
2023-12-23T14:18:04.452Z,1.08
2023-12-23T14:20:36.343Z,1.10
2023-12-23T14:23:08.867Z,1.08
2023-12-23T14:25:40.705Z,1.06
2023-12-23T14:28:13.723Z,1.04
2023-12-23T14:30:46.606Z,1.03
2023-12-23T14:33:18.552Z,1.09
2023-12-23T14:35:50.595Z,1.11
2023-12-23T14:38:22.395Z,1.10
2023-12-23T14:40:54.453Z,1.08
2023-12-23T14:43:26.267Z,1.08
2023-12-23T14:45:58.156Z,1.08
2023-12-23T14:48:30.048Z,1.09
2023-12-23T14:51:02.183Z,1.19
2023-12-23T14:53:34.102Z,1.22
2023-12-23T14:56:06.278Z,1.24
2023-12-23T14:58:38.140Z,1.22
2023-12-23T15:01:10.304Z,1.17
2023-12-23T15:03:42.121Z,1.19
2023-12-23T15:06:14.018Z,1.19
2023-12-23T15:08:45.899Z,1.15
2023-12-23T15:11:17.701Z,1.14
2023-12-23T15:13:49.983Z,1.19
2023-12-23T15:16:21.781Z,1.24
2023-12-23T15:18:56.072Z,1.27
2023-12-23T15:21:28.947Z,1.21
2023-12-23T15:24:00.793Z,1.17
2023-12-23T15:26:33.118Z,1.12
2023-12-23T15:29:05.569Z,1.08
2023-12-23T15:31:37.390Z,1.10
2023-12-23T15:34:09.272Z,1.19
2023-12-23T15:36:41.103Z,1.19
2023-12-23T15:39:13.966Z,1.12
2023-12-23T15:41:45.765Z,1.09
2023-12-23T15:44:17.571Z,1.05
2023-12-23T15:46:49.498Z,1.04
2023-12-23T15:49:21.320Z,1.03
2023-12-23T15:51:53.103Z,1.10
2023-12-23T15:54:24.943Z,1.12
2023-12-23T15:56:57.697Z,1.06
2023-12-23T15:59:29.519Z,1.06
2023-12-23T16:02:04.042Z,1.06
2023-12-23T16:04:36.191Z,1.07
2023-12-23T16:07:08.191Z,1.09
2023-12-23T16:09:39.981Z,1.14
2023-12-23T16:12:11.968Z,1.15
2023-12-23T16:14:43.832Z,1.12
2023-12-23T16:17:15.622Z,1.11
2023-12-23T16:19:47.517Z,1.10
2023-12-23T16:22:19.305Z,1.10
2023-12-23T16:24:51.065Z,1.08
2023-12-23T16:27:22.918Z,1.14
2023-12-23T16:29:54.699Z,1.18
2023-12-23T16:32:26.639Z,1.14
2023-12-23T16:34:59.045Z,1.12
2023-12-23T16:37:30.975Z,1.06
2023-12-23T16:40:03.376Z,1.02
2023-12-23T16:42:37.610Z,0.95
2023-12-23T16:45:15.720Z,0.91
2023-12-23T16:47:47.675Z,0.92
2023-12-23T16:50:19.762Z,1.03
2023-12-23T16:52:51.814Z,1.09
2023-12-23T16:55:23.792Z,1.14
2023-12-23T16:57:56.235Z,1.16
2023-12-23T17:00:28.332Z,1.15
2023-12-23T17:03:00.073Z,1.14
2023-12-23T17:05:32.907Z,1.13
2023-12-23T17:08:04.888Z,1.12
2023-12-23T17:10:38.970Z,1.12
2023-12-23T17:13:10.771Z,1.13
2023-12-23T17:15:42.609Z,1.22
2023-12-23T17:18:14.475Z,1.29
2023-12-23T17:20:46.282Z,1.31
2023-12-23T17:23:18.182Z,1.30
2023-12-23T17:25:49.966Z,1.29
2023-12-23T17:28:21.928Z,1.27
2023-12-23T17:30:53.932Z,1.28
2023-12-23T17:33:25.837Z,1.26
2023-12-23T17:35:57.979Z,1.23
2023-12-23T17:38:29.816Z,1.24
2023-12-23T17:41:01.855Z,1.29
2023-12-23T17:43:33.716Z,1.31
2023-12-23T17:46:06.727Z,1.26
2023-12-23T17:48:38.574Z,1.23
2023-12-23T17:51:10.869Z,1.17
2023-12-23T17:53:42.729Z,1.15
2023-12-23T17:56:14.816Z,1.15
2023-12-23T17:58:46.632Z,1.25
2023-12-23T18:01:18.475Z,1.27
2023-12-23T18:03:50.452Z,1.27
2023-12-23T18:06:22.233Z,1.23
2023-12-23T18:08:54.080Z,1.19
2023-12-23T18:11:25.945Z,1.14
2023-12-23T18:13:57.819Z,1.11
2023-12-23T18:16:29.690Z,1.08
2023-12-23T18:19:01.495Z,1.10
2023-12-23T18:21:33.285Z,1.16
2023-12-23T18:24:05.404Z,1.18
2023-12-23T18:26:37.318Z,1.14
2023-12-23T18:29:09.194Z,1.11
2023-12-23T18:31:41.185Z,1.07
2023-12-23T18:34:13.154Z,1.01
2023-12-23T18:36:44.957Z,0.95
2023-12-23T18:39:16.799Z,0.94
2023-12-23T18:41:48.573Z,0.97
2023-12-23T18:44:22.080Z,0.99
2023-12-23T18:46:54.923Z,0.98
2023-12-23T18:49:27.259Z,0.94
2023-12-23T18:51:59.015Z,0.93
2023-12-23T18:54:30.778Z,0.90
2023-12-23T18:57:05.221Z,0.89
2023-12-23T18:59:37.041Z,0.95
2023-12-23T19:02:10.594Z,0.95
2023-12-23T19:04:41.381Z,0.91
2023-12-23T19:07:13.171Z,0.89
2023-12-23T19:09:45.513Z,0.86
2023-12-23T19:12:17.286Z,0.85
2023-12-23T19:14:49.345Z,0.83
2023-12-23T19:17:21.296Z,0.85
2023-12-23T19:19:53.148Z,0.79
2023-12-23T19:22:25.007Z,0.73
2023-12-23T19:24:56.714Z,0.71
2023-12-23T19:27:28.480Z,0.70
2023-12-23T19:30:00.288Z,0.71
2023-12-23T19:32:32.232Z,0.73
2023-12-23T19:35:04.250Z,0.81
2023-12-23T19:37:36.665Z,0.82
2023-12-23T19:40:11.201Z,0.77
2023-12-23T19:42:43.081Z,0.73
2023-12-23T19:45:15.456Z,0.68
2023-12-23T19:47:47.499Z,0.66
2023-12-23T19:50:20.301Z,0.76
2023-12-23T19:52:54.558Z,0.82
2023-12-23T19:55:26.661Z,0.81
2023-12-23T19:57:58.632Z,0.82
2023-12-23T20:00:30.597Z,0.83
2023-12-23T20:03:02.697Z,0.85
2023-12-23T20:05:36.974Z,0.92
2023-12-23T20:08:09.698Z,0.93
2023-12-23T20:10:41.935Z,0.87
2023-12-23T20:13:13.997Z,0.85
2023-12-23T20:15:46.865Z,0.84
2023-12-23T20:18:18.921Z,0.84
2023-12-23T20:20:50.927Z,0.92
2023-12-23T20:23:22.834Z,0.95
2023-12-23T20:25:54.901Z,0.92
2023-12-23T20:28:26.769Z,0.94
2023-12-23T20:30:58.597Z,0.95
2023-12-23T20:33:30.559Z,0.97
2023-12-23T20:36:04.345Z,1.06
2023-12-23T20:38:36.530Z,1.09
2023-12-23T20:41:08.671Z,1.07
2023-12-23T20:43:40.625Z,1.05
2023-12-23T20:46:14.106Z,1.01
2023-12-23T20:48:47.328Z,1.02
2023-12-23T20:51:19.520Z,1.10
2023-12-23T20:53:51.892Z,1.12
2023-12-23T20:56:25.994Z,1.10
2023-12-23T20:58:58.303Z,1.03
2023-12-23T21:01:30.115Z,1.00
2023-12-23T21:04:03.608Z,1.03
2023-12-23T21:06:35.813Z,1.11
2023-12-23T21:09:09.259Z,1.12
2023-12-23T21:11:41.028Z,1.12
2023-12-23T21:14:12.876Z,1.13
2023-12-23T21:16:44.989Z,1.16
2023-12-23T21:19:16.809Z,1.17
2023-12-23T21:21:50.643Z,1.19
2023-12-23T21:24:23.547Z,1.22
2023-12-23T21:26:55.322Z,1.29
2023-12-23T21:29:27.465Z,1.32
2023-12-23T21:31:59.363Z,1.30
2023-12-23T21:34:31.303Z,1.30
2023-12-23T21:37:03.158Z,1.28
2023-12-23T21:39:35.204Z,1.28
2023-12-23T21:42:07.513Z,1.28
2023-12-23T21:44:39.418Z,1.36
2023-12-23T21:47:12.378Z,1.38
2023-12-23T21:49:44.216Z,1.34
2023-12-23T21:52:16.427Z,1.32
2023-12-23T21:54:48.266Z,1.29
2023-12-23T21:57:20.827Z,1.27
2023-12-23T21:59:52.695Z,1.32
2023-12-23T22:02:24.709Z,1.35
2023-12-23T22:04:56.664Z,1.34
2023-12-23T22:07:28.528Z,1.31
2023-12-23T22:10:00.466Z,1.29
2023-12-23T22:12:32.232Z,1.31
2023-12-23T22:15:03.996Z,1.33
2023-12-23T22:17:35.943Z,1.31
2023-12-23T22:20:09.158Z,1.28
2023-12-23T22:22:40.974Z,1.26
2023-12-23T22:25:12.940Z,1.32
2023-12-23T22:27:44.785Z,1.38
2023-12-23T22:30:17.095Z,1.38
2023-12-23T22:32:49.146Z,1.37
2023-12-23T22:35:21.314Z,1.36
2023-12-23T22:37:53.261Z,1.36
2023-12-23T22:40:25.148Z,1.38
2023-12-23T22:42:56.922Z,1.45
2023-12-23T22:45:28.936Z,1.42
2023-12-23T22:48:02.180Z,1.37
2023-12-23T22:50:34.075Z,1.36
2023-12-23T22:53:06.115Z,1.35
2023-12-23T22:55:37.912Z,1.38
2023-12-23T22:58:10.145Z,1.45
2023-12-23T23:00:42.524Z,1.49
2023-12-23T23:03:14.442Z,1.49
2023-12-23T23:05:46.374Z,1.50
2023-12-23T23:08:18.236Z,1.49
2023-12-23T23:10:49.987Z,1.45
2023-12-23T23:13:21.732Z,1.45
2023-12-23T23:15:53.650Z,1.52
2023-12-23T23:18:25.825Z,1.53
2023-12-23T23:20:57.801Z,1.49
2023-12-23T23:23:30.280Z,1.50
2023-12-23T23:26:02.185Z,1.49
2023-12-23T23:28:34.177Z,1.47
2023-12-23T23:31:06.197Z,1.50
2023-12-23T23:33:38.001Z,1.57
2023-12-23T23:36:15.140Z,1.56
2023-12-23T23:38:46.977Z,1.51
2023-12-23T23:41:18.794Z,1.51
2023-12-23T23:43:50.606Z,1.50
2023-12-23T23:46:22.360Z,1.53
2023-12-23T23:48:54.308Z,1.63
2023-12-23T23:51:26.605Z,1.60
2023-12-23T23:53:58.350Z,1.56
2023-12-23T23:56:30.233Z,1.56
2023-12-23T23:59:02.069Z,1.55
